ADDS TAF Data INFO
IDs: Format: Raw Decoded Include METARs

Data at: 1501 UTC 04 May 2015

Region: TOP
KATL 041344Z 0414/0518 20003KT P6SM FEW070
  FM041700 17006KT P6SM SCT060
  FM050200 16004KT P6SM SKC
  FM051100 12003KT P6SM FEW250


KBOS 041121Z 0412/0518 22010KT P6SM FEW080
  FM041700 22012G23KT P6SM FEW080
  FM050900 25010KT P6SM BKN080
  FM051600 29007KT P6SM OVC050


KBWI 041144Z 0412/0518 VRB03KT P6SM SCT100
  FM041400 22006KT P6SM FEW090
  FM041800 20011G17KT P6SM SCT060
  FM042200 18007KT P6SM FEW050


KCLE 041457Z 0415/0518 21012G22KT P6SM SCT050 BKN100
  FM042100 22012G22KT P6SM VCTS OVC050CB
  TEMPO 0423/0501 1 1/2SM -TSRA BR BKN025CB OVC035
  FM050200 22008KT P6SM VCSH SCT025 OVC035


KCLT 041500Z 0415/0512 20004KT P6SM FEW060
  FM041800 21007KT P6SM SCT070
  FM050200 18005KT P6SM SCT060


KCVG 041457Z 0415/0518 21010KT P6SM SCT060 BKN070
  FM041700 22010G22KT P6SM VCSH SCT050 BKN150
  FM042100 22013KT P6SM VCTS BKN050CB BKN150
  FM050200 21007KT P6SM BKN060 BKN250
  FM051500 22010KT P6SM SCT050


KDCA 041144Z 0412/0512 21005KT P6SM FEW100 SCT250
  FM041300 20007KT P6SM FEW090
  FM041700 18012KT P6SM SCT060
  FM050200 19006KT P6SM SCT050


KDEN 041123Z 0412/0518 09006KT P6SM VCSH BKN025 OVC040
  TEMPO 0412/0416 5SM -RA BR BKN020
  FM041700 08007KT P6SM BKN020 OVC030
  FM042000 10007KT P6SM VCTS BKN025 BKN040CB
  TEMPO 0422/0502 3SM -TSRA BKN025CB
  FM050200 11008KT 5SM -RA BR BKN020 OVC040
  FM050600 11009KT 2SM -SHRA BR BKN010 OVC020
  FM051600 08007KT 3SM -SHRA BKN018 OVC025


KDFW 041457Z 0415/0518 17010KT P6SM BKN020
  TEMPO 0417/0418 SCT020 BKN040
  FM041800 17015KT P6SM BKN040
  FM050300 16014KT P6SM BKN100
  FM051000 15013KT P6SM BKN015


KDTW 041348Z 0414/0518 21013KT P6SM BKN060 OVC100
  TEMPO 0414/0418 5SM -RA SCT025 OVC050
  FM042100 30013KT P6SM BKN040
  FM050200 04008KT P6SM BKN080 OVC200
  FM050800 09005KT 6SM -SHRA OVC040


KEWR 041412Z 0414/0518 22004KT P6SM FEW090
  FM041600 21009KT P6SM FEW090
  FM041700 21012G18KT P6SM FEW080 SCT250
  FM042000 20015G22KT P6SM FEW080 SCT250
  FM050200 21012KT P6SM FEW070 SCT250
  FM050600 22008KT P6SM FEW070 SCT250
  FM050900 25006KT P6SM SCT070 SCT150 BKN250
  PROB30 0515/0518 -SHRA


KFLL 041137Z 0412/0512 07010KT P6SM FEW050 SCT250
  FM041400 08017G27KT P6SM SCT050 BKN250
  FM050200 09012G22KT P6SM VCSH BKN050 BKN250


KIAD 041144Z 0412/0518 VRB03KT P6SM FEW100
  FM041300 21007KT P6SM FEW090
  FM041800 20011G17KT P6SM SCT060
  FM042200 19006KT P6SM SCT050


KIAH 041500Z 0415/0518 12006KT P6SM SKC
  FM042100 12012G19KT P6SM FEW050
  FM050200 12008KT P6SM SCT030
  FM051000 13005KT P6SM VCSH SCT015
  FM051500 13013KT P6SM VCTS SCT025 SCT035CB


KJFK 041412Z 0414/0518 18005KT P6SM FEW100
  FM041600 19012KT P6SM FEW080 SCT250
  FM041800 19015G23KT P6SM FEW080 SCT250
  FM042000 19021G28KT P6SM FEW080 SCT250
  FM050100 21016G22KT P6SM FEW070 SCT250
  FM050600 22010KT P6SM FEW070 SCT250
  FM050900 25007KT P6SM SCT070 SCT150 BKN250
  PROB30 0515/0518 -SHRA


KLAS 041457Z 0415/0512 VRB05KT P6SM SCT120
  FM041900 19010G18KT P6SM SCT120 SCT250
  FM042200 22012G20KT P6SM VCTS BKN120CB
  TEMPO 0422/0502 VRB15G25KT
  FM050600 22010G18KT P6SM BKN120


KLAX 041451Z 0415/0518 24006KT P6SM FEW010 BKN025
  FM041800 24007KT P6SM SCT025
  FM042000 25010KT P6SM FEW025
  FM042200 26015KT P6SM FEW025
  FM050400 25006KT P6SM BKN012
  FM051400 VRB05KT P6SM OVC012


KLGA 041456Z 0415/0512 VRB05KT P6SM FEW060
  FM041600 22007KT P6SM FEW070
  FM041800 20013G21KT P6SM FEW080 SCT250
  FM042200 20016G24KT P6SM FEW080 SCT250
  FM050300 21013KT P6SM FEW070 SCT250
  FM050500 22008KT P6SM FEW070 SCT250
  FM050900 25005KT P6SM SCT070 SCT150 BKN250


KMCO 041401Z 0414/0512 07015G21KT P6SM FEW040 FEW080 SCT250
  FM050000 07010KT P6SM FEW060 SCT250


KMDW 041420Z 0414/0512 25006KT P6SM FEW040 OVC120
  FM041600 34009KT 6SM BR SCT008 BKN100
  FM041800 01010KT P6SM SCT015 BKN150
  FM042000 05011KT P6SM BKN035
  FM050000 07009KT P6SM VCSH BKN040
  FM050400 07010KT 5SM -SHRA VCTS OVC020CB
  PROB30 0506/0510 3SM TSRA OVC010CB


KMEM 041458Z 0415/0512 20010KT P6SM SCT060 SCT250
  FM050100 16007KT P6SM SCT060
  FM050800 18006KT P6SM BKN100


KMIA 041137Z 0412/0512 04010KT P6SM FEW050 SCT250
  FM041400 08017G27KT P6SM SCT050 BKN250
  FM050200 09012G22KT P6SM VCSH BKN050 BKN250


KMSP 041457Z 0415/0518 02011KT P6SM FEW300
  FM050100 04005KT P6SM BKN150
  FM050900 07005KT P6SM OVC050


KORD 041420Z 0414/0518 28008KT P6SM SCT040 OVC150
  FM041600 35009KT 6SM BR SCT008 BKN100
  FM041800 01010KT P6SM SCT015 BKN150
  FM042000 04011KT P6SM BKN035
  FM050000 07009KT P6SM VCSH BKN040
  FM050400 07010KT 4SM -SHRA VCTS OVC020CB
  PROB30 0506/0510 3SM TSRA OVC010CB
  FM051200 07011KT 6SM -SHRA BR OVC010


KPDX 041452Z 0415/0512 VRB04KT P6SM FEW015
  FM041700 27005KT P6SM SKC
  FM050000 30011G20KT P6SM BKN050
  FM050600 24006KT P6SM VCSH BKN025


KPHL 041501Z 0415/0518 22006KT P6SM FEW100
  FM041700 23014G22KT P6SM FEW060
  FM050000 23008KT P6SM SKC
  FM051500 26010KT P6SM SCT050 SCT250


KPHX 041452Z 0415/0512 27008KT P6SM FEW080 SCT100 BKN220
  FM041700 23011KT P6SM VCSH SCT080 SCT120 BKN200
  FM042100 27012G20KT P6SM VCTS SCT045 BKN080CB
  FM050000 27010KT P6SM -TSRA BKN060CB
  FM050800 15008KT P6SM VCSH SCT050 BKN080


KPIT 041457Z 0415/0518 22010G20KT P6SM SCT060 BKN250
  FM050100 22006KT P6SM BKN080
  FM050800 23008KT P6SM -SHRA OVC025
  FM051000 25007KT 5SM -SHRA BR OVC015


KSAN 041424Z 0414/0518 VRB05KT P6SM OVC022
  FM041700 VRB04KT P6SM OVC030
  FM041900 29011KT P6SM SCT035
  TEMPO 0419/0420 BKN030
  FM050000 29009KT P6SM BKN025
  FM050200 VRB05KT P6SM OVC022


KSEA 041458Z 0415/0518 20005KT P6SM SCT007
  FM041800 21010KT P6SM SCT040
  FM042100 21014KT P6SM SCT040
  TEMPO 0500/0504 BKN040
  FM050400 21010KT P6SM VCSH SCT020 BKN040
  FM051100 18008KT P6SM VCSH BKN020 OVC040


KSFO 041120Z 0412/0518 22008KT P6SM FEW010 OVC015
  FM041900 27014KT P6SM SCT020
  FM042200 26015KT P6SM FEW020
  FM050400 24012KT P6SM BKN015
  FM050700 26010KT P6SM OVC012


KSLC 041120Z 0412/0518 15010KT P6SM VCSH SCT060 BKN070
  FM041900 31008KT P6SM SCT060 BKN100
  FM050300 15008KT P6SM FEW090 BKN120


KSTL 041120Z 0412/0518 21010KT P6SM VCSH BKN060
  FM041500 21012G20KT P6SM SCT150 BKN250
  FM050000 20009KT P6SM SCT150 BKN250


KTPA 041125Z 0412/0512 07005KT P6SM FEW050 BKN250
  FM041400 09009KT P6SM FEW040 SCT250
  FM041800 09012G18KT P6SM SCT050 SCT250
  FM050300 07008KT P6SM SCT250